ADDS METAR Data INFO
IDs: Format: Raw Decoded Include TAF

Data at: 1211 UTC 21 Jun 2018

KMCI 211153Z 26008KT 10SM SCT037 BKN080 17/14 A2981 RMK AO2 SLP085 70028 T01720144 10183 20167 53004
KMCI 211053Z 26010KT 10SM FEW024 BKN130 17/15 A2980 RMK AO2 SLP083 T01670150
KMCI 211020Z 27009KT 10SM BKN024 17/15 A2980 RMK AO2 T01670150
KMCI 210953Z 26008KT 10SM SCT022 17/15 A2980 RMK AO2 SLP081 T01670150
KMCI 210853Z 27008KT 10SM FEW022 17/15 A2980 RMK AO2 SLP080 T01720150 58008
KMCI 210753Z 27007KT 10SM SCT050 18/16 A2981 RMK AO2 SLP084 T01780156
KMCI 210653Z 27006KT 10SM BKN050 18/16 A2982 RMK AO2 SLP088 T01830156
KMCI 210553Z 31007KT 10SM SCT100 18/16 A2982 RMK AO2 SLP088 60028 T01830161 10272 20183 402830183 51002
KMCI 210453Z 32010G18KT 10SM BKN100 20/17 A2981 RMK AO2 SLP086 T02000172
KMCI 210353Z 30006KT 10SM SCT060 BKN130 22/19 A2982 RMK AO2 SLP086 LTG DSNT SW CB DSNT SW T02170189
KMCI 210253Z 26003KT 10SM FEW042 SCT200 23/19 A2981 RMK AO2 LTG DSNT E RAE14 TSE05 SLP084 LTG DSNT W CB DSNT W P0027 60028 T02280189 51008
KMCI 210231Z 26003KT 10SM FEW042 SCT050 BKN200 21/19 A2981 RMK AO2 RAE14 TSE05 LTG DSNT W CB DSNT W P0027 T02110194
KMCI 210220Z 30004KT 10SM VCTS FEW008 BKN038 BKN065CB 22/19 A2981 RMK AO2 RAE14 TSE05 TS VC E P0027 T02170194
KMCI 210211Z 28005KT 10SM -RA FEW008 BKN038 BKN065 21/19 A2981 RMK AO2 LTG DSNT E TSE05 CB DSNT E P0027 T02110189
KMCI 210204Z 30007KT 6SM -TSRA FEW008 BKN038CB 22/19 A2981 RMK AO2 LTG DSNT NE AND E VIS E-S 1 TS E MOV E P0027 T02220189
KMCI 210202Z VRB06KT 1SM R19R/4500VP6000FT -TSRA FEW008 BKN038CB 22/19 A2981 RMK AO2 LTG DSNT NE AND E TS E MOV E P0025 T02220189
KMCI 210156Z 32010G25KT 310V010 1/4SM R19R/2000VP6000FT +TSRA FG FEW008 OVC038CB 21/19 A2982 RMK AO2 LTG DSNT NE AND E TS E MOV E P0005 T02110189
KMCI 210153Z 33016G25KT 1/4SM R19R/2000VP6000FT +TSRA BKN038 22/19 A2981 RMK AO2 LTG DSNT E RAB49 TSB50 SLP082 VIS S-SW 8 CB DSNT SW P0001 T02220194
KMCI 210150Z 32013G25KT 1SM R19R/2800VP6000FT -TSRA BKN038 23/19 A2981 RMK AO2 LTG DSNT NE RAB49 TSB50 VIS W-N 1 CB DSNT SW P0000
KMCI 210053Z 26003KT 10SM FEW048 26/19 A2980 RMK AO2 SLP081 T02560189
KMCI 202353Z 27007KT 10SM FEW040 SCT250 27/18 A2979 RMK AO2 SLP075 60000 T02720183 10283 20250 53001
KMCI 202253Z 27012KT 10SM FEW030 SCT130 BKN250 27/18 A2978 RMK AO2 SLP072 T02670183
KMCI 202153Z 30006KT 10SM FEW030 SCT130 BKN250 27/19 A2978 RMK AO2 SLP073 T02720189
KMCI 202053Z 31011G18KT 10SM FEW029 SCT130 BKN250 27/18 A2979 RMK AO2 RAE25 SLP075 P0000 60000 T02670183 58020
KMCI 201953Z 28010KT 10SM -RA SCT028 BKN110 BKN250 26/19 A2982 RMK AO2 RAB45 SLP087 P0000 T02560189
KMCI 201853Z 26013G18KT 10SM SCT029 BKN110 BKN150 OVC250 26/19 A2984 RMK AO2 SLP094 T02560189
KMCI 201753Z 24009KT 10SM SCT031 SCT080 BKN150 OVC250 26/19 A2985 RMK AO2 SLP096 T02560194 10272 20239 53005
KMCI 201653Z 25012G23KT 10SM SCT030 BKN130 OVC250 27/19 A2984 RMK AO2 SLP093 T02670194
KMCI 201553Z 23011KT 10SM FEW029 FEW060 SCT130 BKN250 27/19 A2984 RMK AO2 SLP091 T02720194
KMCI 201453Z 23009KT 10SM FEW021 FEW150 BKN250 27/22 A2983 RMK AO2 SLP091 T02720217 53003
KMCI 201353Z 21011KT 10SM FEW030 FEW150 BKN250 26/22 A2983 RMK AO2 SLP090 T02610217
KMCI 201253Z 18011KT 10SM R19R/4500VP6000FT SCT130 BKN250 24/21 A2981 RMK AO2 SLP081 T02440211
KMCI 201153Z 19010KT 10SM BKN130 24/21 A2983 RMK AO2 SLP088 70096 T02390211 10239 20217 58015 $
KMCI 201053Z 18007KT 10SM SCT034 SCT043 BKN090 23/21 A2984 RMK AO2 SLP095 T02280211 $
KMCI 200953Z 18005KT 10SM SCT050 BKN055 OVC075 22/21 A2986 RMK AO2 SLP099 T02220211 $
KMCI 200853Z 19006KT 10SM BKN050 22/21 A2987 RMK AO2 SLP105 T02220206 58006 $
KMCI 200753Z 17007KT 10SM SCT038 SCT049 OVC060 23/21 A2989 RMK AO2 SLP111 T02280211 $
KMCI 200653Z 17007KT 10SM BKN040 22/21 A2989 RMK AO2 SLP112 T02170211 $
KMCI 200553Z 15005KT 10SM OVC150 23/21 A2989 RMK AO2 SLP112 T02280211 10278 20228 402830200 50000 $
KMCI 200453Z 14005KT 10SM BKN150 24/21 A2991 RMK AO2 SLP117 T02440211 $
KMCI 200353Z 15004KT 10SM FEW150 OVC250 24/21 A2991 RMK AO2 SLP117 T02440211 $
KMCI 200253Z 14006KT 10SM FEW080 BKN150 BKN250 26/22 A2989 RMK AO2 SLP108 T02560217 53013 $
KMCI 200153Z 14005KT 10SM FEW080 BKN150 BKN250 26/22 A2987 RMK AO2 SLP103 T02610217 $
KMCI 200053Z 19005KT 10SM FEW080 SCT150 BKN250 27/22 A2987 RMK AO2 SLP101 T02720222 $